createdAt,value
2018-07-19T00:00:21.784Z,0.00
2018-07-19T00:01:21.785Z,0.00
2018-07-19T00:02:21.783Z,0.00
2018-07-19T00:03:21.784Z,0.00
2018-07-19T00:04:21.780Z,0.00
2018-07-19T00:05:21.779Z,0.00
2018-07-19T00:06:21.784Z,0.00
2018-07-19T00:07:21.778Z,0.00
2018-07-19T00:08:21.776Z,0.00
2018-07-19T00:09:21.776Z,0.00
2018-07-19T00:10:21.775Z,0.00
2018-07-19T00:11:21.772Z,0.00
2018-07-19T00:12:21.768Z,0.00
2018-07-19T00:13:21.770Z,0.00
2018-07-19T00:14:21.772Z,0.00
2018-07-19T00:15:21.766Z,0.00
2018-07-19T00:16:21.773Z,0.00
2018-07-19T00:17:21.769Z,0.00
2018-07-19T00:18:21.764Z,0.00
2018-07-19T00:19:21.760Z,0.00
2018-07-19T00:20:21.758Z,0.00
2018-07-19T00:21:21.762Z,0.00
2018-07-19T00:22:21.763Z,0.00
2018-07-19T00:23:21.755Z,0.00
2018-07-19T00:24:21.753Z,0.00
2018-07-19T00:25:21.758Z,0.00
2018-07-19T00:26:21.751Z,0.00
2018-07-19T00:27:21.751Z,0.00
2018-07-19T00:28:21.747Z,0.00
2018-07-19T00:29:21.750Z,0.00
2018-07-19T00:30:21.750Z,0.00
2018-07-19T00:31:21.745Z,0.00
2018-07-19T00:32:21.746Z,0.00
2018-07-19T00:33:21.746Z,0.00
2018-07-19T00:34:21.739Z,0.00
2018-07-19T00:35:21.742Z,0.00
2018-07-19T00:36:21.734Z,0.00
2018-07-19T00:37:21.741Z,0.00
2018-07-19T00:38:21.733Z,0.00
2018-07-19T00:39:21.738Z,0.00
2018-07-19T00:40:21.730Z,0.00
2018-07-19T00:41:21.731Z,0.00
2018-07-19T00:42:21.732Z,0.00
2018-07-19T00:43:21.731Z,0.00
2018-07-19T00:44:21.723Z,0.00
2018-07-19T00:45:21.723Z,0.00
2018-07-19T00:46:21.721Z,0.00
2018-07-19T00:47:21.720Z,0.00
2018-07-19T00:48:21.720Z,0.00
2018-07-19T00:49:21.718Z,0.00
2018-07-19T00:50:21.717Z,0.00
2018-07-19T00:51:21.720Z,0.00
2018-07-19T00:52:21.718Z,0.00
2018-07-19T00:53:21.715Z,0.00
2018-07-19T00:54:21.714Z,0.00
2018-07-19T00:55:21.707Z,0.00
2018-07-19T00:56:21.704Z,0.00
2018-07-19T00:57:21.705Z,0.00
2018-07-19T00:58:21.709Z,0.00
2018-07-19T00:59:21.707Z,0.00
2018-07-19T01:00:21.701Z,0.00
2018-07-19T01:01:21.698Z,0.00
2018-07-19T01:02:21.696Z,0.00
2018-07-19T01:03:21.697Z,0.00
2018-07-19T01:04:21.693Z,0.00
2018-07-19T01:05:21.691Z,0.00
2018-07-19T01:06:21.691Z,0.00
2018-07-19T01:07:21.692Z,0.00
2018-07-19T01:08:21.694Z,0.00
2018-07-19T01:09:21.687Z,0.00
2018-07-19T01:10:21.684Z,0.00
2018-07-19T01:11:21.684Z,0.00
2018-07-19T01:12:21.679Z,0.00
2018-07-19T01:13:21.681Z,0.00
2018-07-19T01:14:21.680Z,0.00
2018-07-19T01:15:21.678Z,0.00
2018-07-19T01:16:21.679Z,0.00
2018-07-19T01:17:21.673Z,0.00
2018-07-19T01:18:21.674Z,0.00
2018-07-19T01:19:21.670Z,0.00
2018-07-19T01:20:21.669Z,0.00
2018-07-19T01:21:21.667Z,0.00
2018-07-19T01:22:21.672Z,0.00
2018-07-19T01:23:21.670Z,0.00
2018-07-19T01:24:21.663Z,0.00
2018-07-19T01:25:21.661Z,0.00
2018-07-19T01:26:21.663Z,0.00
2018-07-19T01:27:21.658Z,0.00
2018-07-19T01:28:21.660Z,0.00
2018-07-19T01:29:21.654Z,0.00
2018-07-19T01:30:21.657Z,0.00
2018-07-19T01:31:21.651Z,0.00
2018-07-19T01:32:21.650Z,0.00
2018-07-19T01:33:21.649Z,0.00
2018-07-19T01:34:21.650Z,0.00
2018-07-19T01:35:21.646Z,0.00
2018-07-19T01:36:21.652Z,0.00
2018-07-19T01:37:21.642Z,0.00
2018-07-19T01:38:21.644Z,0.00
2018-07-19T01:39:21.642Z,0.00
2018-07-19T01:40:21.641Z,0.00
2018-07-19T01:41:21.638Z,0.00
2018-07-19T01:42:21.639Z,0.00
2018-07-19T01:43:21.633Z,0.00
2018-07-19T01:44:21.633Z,0.00
2018-07-19T01:45:21.635Z,0.00
2018-07-19T01:46:21.628Z,0.00
2018-07-19T01:47:21.628Z,0.00
2018-07-19T01:48:21.623Z,0.00
2018-07-19T01:49:21.621Z,0.00
2018-07-19T01:50:21.622Z,0.00
2018-07-19T01:51:21.619Z,0.00
2018-07-19T01:52:21.618Z,0.00
2018-07-19T01:53:21.615Z,0.00
2018-07-19T01:54:21.616Z,0.00
2018-07-19T01:55:21.612Z,0.00
2018-07-19T01:56:21.611Z,0.00
2018-07-19T01:57:21.609Z,0.00
2018-07-19T01:58:21.606Z,0.00
2018-07-19T01:59:21.605Z,0.00
2018-07-19T02:00:21.607Z,0.00
2018-07-19T02:01:21.607Z,0.00
2018-07-19T02:02:21.600Z,0.00
2018-07-19T02:03:21.599Z,0.00
2018-07-19T02:04:21.595Z,0.00
2018-07-19T02:05:21.594Z,0.00
2018-07-19T02:17:06.185Z,0.00
2018-07-19T02:18:06.186Z,0.00
2018-07-19T02:19:06.183Z,0.00
2018-07-19T02:20:06.175Z,0.00
2018-07-19T02:21:06.176Z,0.00
2018-07-19T02:22:06.175Z,0.00
2018-07-19T02:23:06.172Z,0.00
2018-07-19T02:24:06.174Z,0.00
2018-07-19T02:25:06.172Z,0.00
2018-07-19T02:26:06.165Z,0.00
2018-07-19T02:27:06.164Z,0.00
2018-07-19T02:28:06.168Z,0.00
2018-07-19T02:29:06.161Z,0.00
2018-07-19T02:30:06.159Z,0.00
2018-07-19T02:31:06.156Z,0.00
2018-07-19T02:32:06.155Z,0.00
2018-07-19T02:33:06.151Z,0.00
2018-07-19T02:34:06.149Z,0.00
2018-07-19T02:35:06.153Z,0.00
2018-07-19T02:36:06.145Z,0.00
2018-07-19T02:37:06.143Z,0.00
2018-07-19T02:38:06.145Z,0.00
2018-07-19T02:39:06.146Z,0.00
2018-07-19T02:40:06.136Z,0.00
2018-07-19T02:41:06.133Z,0.00
2018-07-19T02:42:06.134Z,0.00
2018-07-19T02:43:06.131Z,0.00
2018-07-19T02:44:06.131Z,0.00
2018-07-19T02:45:06.129Z,0.00
2018-07-19T02:46:06.133Z,0.00
2018-07-19T02:47:06.126Z,0.00
2018-07-19T02:48:06.124Z,0.00
2018-07-19T02:49:06.117Z,0.00
2018-07-19T02:50:06.115Z,0.00
2018-07-19T02:51:06.115Z,0.00
2018-07-19T02:52:06.121Z,0.00
2018-07-19T02:53:06.108Z,0.00
2018-07-19T02:54:06.104Z,0.00
2018-07-19T02:55:06.110Z,0.00
2018-07-19T02:56:06.105Z,0.00
2018-07-19T02:57:06.102Z,0.00
2018-07-19T02:58:06.104Z,0.00
2018-07-19T02:59:06.096Z,0.00
2018-07-19T03:00:06.092Z,0.00
2018-07-19T03:01:06.092Z,0.00
2018-07-19T03:02:06.145Z,0.00
2018-07-19T03:03:06.092Z,0.00
2018-07-19T03:04:06.082Z,0.00
2018-07-19T03:05:06.089Z,0.00
2018-07-19T03:06:06.083Z,0.00
2018-07-19T03:07:06.076Z,0.00
2018-07-19T03:08:06.078Z,0.00
2018-07-19T03:09:06.077Z,0.00
2018-07-19T03:10:06.077Z,0.00
2018-07-19T03:11:06.069Z,0.00
2018-07-19T03:12:06.069Z,0.00
2018-07-19T03:13:06.062Z,0.00
2018-07-19T03:14:06.059Z,4.00
2018-07-19T03:15:06.064Z,0.00
2018-07-19T03:16:06.054Z,0.00
2018-07-19T03:17:06.053Z,4.00
2018-07-19T03:18:06.064Z,4.00
2018-07-19T03:19:06.049Z,0.00
2018-07-19T03:20:06.047Z,4.00
2018-07-19T03:21:06.043Z,4.00
2018-07-19T03:22:06.046Z,4.00
2018-07-19T03:23:06.050Z,8.00
2018-07-19T03:24:06.043Z,8.00
2018-07-19T03:25:06.039Z,8.00
2018-07-19T03:26:06.037Z,8.00
2018-07-19T03:27:06.029Z,12.00
2018-07-19T03:28:06.033Z,8.00
2018-07-19T03:29:06.024Z,12.00
2018-07-19T03:30:06.027Z,12.00
2018-07-19T03:31:06.039Z,20.00
2018-07-19T03:32:06.016Z,20.00
2018-07-19T03:33:06.018Z,24.00
2018-07-19T03:34:06.013Z,24.00
2018-07-19T03:35:06.009Z,28.00
2018-07-19T03:37:06.009Z,36.00
2018-07-19T03:38:06.004Z,40.00
2018-07-19T03:39:06.003Z,44.00
2018-07-19T03:40:06.044Z,48.00
2018-07-19T03:41:05.994Z,52.00
2018-07-19T03:42:05.997Z,56.00
2018-07-19T03:43:05.994Z,68.00
2018-07-19T03:44:05.987Z,72.00
2018-07-19T03:45:05.986Z,76.00
2018-07-19T03:46:05.982Z,84.00
2018-07-19T03:47:05.984Z,92.00
2018-07-19T03:48:05.976Z,100.00
2018-07-19T03:49:05.977Z,108.00
2018-07-19T03:50:05.972Z,120.00
2018-07-19T03:51:05.972Z,128.00
2018-07-19T03:52:05.966Z,136.00
2018-07-19T03:53:05.964Z,148.00
2018-07-19T03:54:05.969Z,160.00
2018-07-19T03:55:05.964Z,172.00
2018-07-19T03:56:05.966Z,184.00
2018-07-19T03:57:05.960Z,196.00
2018-07-19T03:58:05.955Z,212.00
2018-07-19T03:59:05.949Z,228.00
2018-07-19T04:00:05.946Z,248.00
2018-07-19T04:01:05.945Z,264.00
2018-07-19T04:02:05.946Z,284.00
2018-07-19T04:03:05.938Z,304.00
2018-07-19T04:04:05.937Z,324.00
2018-07-19T04:05:05.934Z,336.00
2018-07-19T04:06:05.935Z,352.00
2018-07-19T04:07:05.934Z,368.00
2018-07-19T04:08:05.925Z,388.00
2018-07-19T04:09:05.928Z,416.00
2018-07-19T04:10:05.920Z,444.00
2018-07-19T04:11:05.917Z,480.00
2018-07-19T04:12:05.919Z,520.00
2018-07-19T04:13:05.912Z,556.00
2018-07-19T04:14:05.915Z,592.00
2018-07-19T04:15:05.910Z,624.00
2018-07-19T04:16:05.912Z,656.00
2018-07-19T04:17:05.973Z,688.00
2018-07-19T04:18:05.909Z,716.00
2018-07-19T04:19:05.898Z,752.00
2018-07-19T04:20:05.896Z,788.00
2018-07-19T04:21:05.891Z,828.00
2018-07-19T04:22:05.896Z,864.00
2018-07-19T04:23:05.887Z,904.00
2018-07-19T04:24:05.884Z,944.00
2018-07-19T04:25:05.928Z,984.00
2018-07-19T04:26:05.878Z,1032.00
2018-07-19T04:27:05.877Z,1084.00
2018-07-19T04:28:05.873Z,1684.00
2018-07-19T04:29:05.871Z,2916.00
2018-07-19T04:30:05.870Z,4512.00
2018-07-19T04:31:05.868Z,4556.00
2018-07-19T04:32:05.865Z,4940.00
2018-07-19T04:33:05.862Z,7352.00
2018-07-19T04:34:05.859Z,9248.00
2018-07-19T04:35:05.861Z,10496.00
2018-07-19T04:36:05.859Z,11136.00
2018-07-19T04:37:05.860Z,11968.00
2018-07-19T04:38:05.864Z,13152.00
2018-07-19T04:39:05.852Z,13856.00
2018-07-19T04:40:05.850Z,14240.00
2018-07-19T04:41:05.848Z,14432.00
2018-07-19T04:42:05.853Z,14592.00
2018-07-19T04:43:05.850Z,14272.00
2018-07-19T04:44:05.855Z,11968.00
2018-07-19T04:45:05.849Z,11488.00
2018-07-19T04:46:05.851Z,14400.00
2018-07-19T04:47:05.854Z,17440.00
2018-07-19T04:48:05.855Z,18752.00
2018-07-19T04:49:05.848Z,19872.00
2018-07-19T04:50:05.851Z,20224.00
2018-07-19T04:51:05.857Z,20576.00
2018-07-19T04:52:05.859Z,21600.00
2018-07-19T04:53:05.855Z,23200.00
2018-07-19T04:54:05.857Z,25504.00
2018-07-19T04:55:05.864Z,24160.00
2018-07-19T04:56:05.860Z,27360.00
2018-07-19T04:57:05.869Z,26880.00
2018-07-19T04:58:05.866Z,28800.00
2018-07-19T04:59:05.870Z,26176.00
2018-07-19T05:00:05.874Z,26592.00
2018-07-19T05:01:05.877Z,27168.00
2018-07-19T05:02:05.914Z,26976.00
2018-07-19T05:03:05.890Z,26752.00
2018-07-19T05:04:05.892Z,26912.00
2018-07-19T05:05:05.892Z,27936.00
2018-07-19T05:06:05.904Z,29248.00
2018-07-19T05:07:05.902Z,29728.00
2018-07-19T05:08:05.907Z,30944.00
2018-07-19T05:09:05.917Z,31648.00
2018-07-19T05:10:05.924Z,31680.00
2018-07-19T05:11:05.929Z,33216.00
2018-07-19T05:12:05.933Z,34176.00
2018-07-19T05:13:05.937Z,34880.00
2018-07-19T05:14:05.996Z,33536.00
2018-07-19T05:15:05.951Z,19008.00
2018-07-19T05:16:05.956Z,4880.00
2018-07-19T05:17:05.961Z,4064.00
2018-07-19T05:18:05.961Z,3948.00
2018-07-19T05:19:05.967Z,3872.00
2018-07-19T05:20:05.973Z,3824.00
2018-07-19T05:21:05.983Z,3792.00
2018-07-19T05:22:05.983Z,3760.00
2018-07-19T05:23:06.015Z,3736.00
2018-07-19T05:24:05.992Z,3720.00
2018-07-19T05:25:05.997Z,3700.00
2018-07-19T05:26:06.001Z,3680.00
2018-07-19T05:27:06.006Z,3672.00
2018-07-19T05:28:06.008Z,3668.00
2018-07-19T05:29:06.019Z,3652.00
2018-07-19T05:30:06.018Z,3640.00
2018-07-19T05:31:06.026Z,3636.00
2018-07-19T05:32:06.023Z,3624.00
2018-07-19T05:33:06.029Z,3620.00
2018-07-19T05:34:06.031Z,3616.00
2018-07-19T05:35:06.035Z,3612.00
2018-07-19T05:36:06.034Z,3612.00
2018-07-19T05:37:06.042Z,3608.00
2018-07-19T05:38:06.040Z,3604.00
2018-07-19T05:39:06.043Z,3600.00
2018-07-19T05:40:06.050Z,3604.00
2018-07-19T05:41:06.049Z,3600.00
2018-07-19T05:42:06.085Z,3596.00
2018-07-19T05:43:06.058Z,3592.00
2018-07-19T05:44:06.053Z,3588.00
2018-07-19T05:45:06.060Z,3580.00
2018-07-19T05:46:06.057Z,3584.00
2018-07-19T05:47:06.065Z,3572.00
2018-07-19T05:48:06.066Z,3568.00
2018-07-19T05:49:06.064Z,3564.00
2018-07-19T05:50:06.067Z,3564.00
2018-07-19T05:51:06.072Z,3560.00
2018-07-19T05:52:06.077Z,3540.00
2018-07-19T05:53:06.080Z,3524.00
2018-07-19T05:54:06.073Z,3508.00
2018-07-19T05:55:06.083Z,3496.00
2018-07-19T05:56:06.076Z,3484.00
2018-07-19T05:57:06.082Z,3468.00
2018-07-19T05:58:06.107Z,3464.00
2018-07-19T05:59:06.082Z,3460.00
2018-07-19T06:00:06.083Z,3448.00
2018-07-19T06:01:06.090Z,3448.00
2018-07-19T06:02:06.088Z,3444.00
2018-07-19T06:03:06.085Z,3444.00
2018-07-19T06:04:06.087Z,3436.00
2018-07-19T06:05:06.092Z,3428.00
2018-07-19T06:06:06.094Z,3424.00
2018-07-19T06:07:06.090Z,3424.00
2018-07-19T06:08:06.089Z,3420.00
2018-07-19T06:09:06.094Z,3420.00
2018-07-19T06:10:06.092Z,3416.00
2018-07-19T06:11:06.099Z,3416.00
2018-07-19T06:12:06.099Z,3416.00
2018-07-19T06:13:06.096Z,3408.00
2018-07-19T06:14:06.095Z,3404.00
2018-07-19T06:15:06.099Z,3400.00
2018-07-19T06:16:06.115Z,3392.00
2018-07-19T06:17:06.098Z,3388.00
2018-07-19T06:18:06.099Z,3384.00
2018-07-19T06:19:06.100Z,3380.00
2018-07-19T06:20:06.102Z,3376.00
2018-07-19T06:21:06.105Z,3376.00
2018-07-19T06:22:06.106Z,3372.00
2018-07-19T06:23:06.106Z,3368.00
2018-07-19T06:24:06.108Z,3364.00
2018-07-19T06:25:06.108Z,3368.00
2018-07-19T06:26:06.109Z,3360.00
2018-07-19T06:27:06.112Z,3352.00
2018-07-19T06:28:06.109Z,3364.00
2018-07-19T06:29:06.110Z,3336.00
2018-07-19T06:30:06.112Z,3328.00
2018-07-19T06:31:06.118Z,3316.00
2018-07-19T06:32:06.120Z,3312.00
2018-07-19T06:33:06.121Z,3296.00
2018-07-19T06:34:06.117Z,3288.00
2018-07-19T06:35:06.117Z,3272.00
2018-07-19T06:36:06.125Z,3264.00
2018-07-19T06:37:06.121Z,3248.00
2018-07-19T06:38:06.124Z,3236.00
2018-07-19T06:39:06.132Z,3232.00
2018-07-19T06:40:06.128Z,3228.00
2018-07-19T06:41:06.133Z,3220.00
2018-07-19T06:42:06.130Z,3212.00
2018-07-19T06:43:06.136Z,3212.00
2018-07-19T06:44:06.136Z,3204.00
2018-07-19T06:45:06.132Z,3208.00
2018-07-19T06:46:06.133Z,3200.00
2018-07-19T06:47:06.134Z,3196.00
2018-07-19T06:48:06.140Z,3188.00
2018-07-19T06:49:06.136Z,3180.00
2018-07-19T06:50:06.141Z,3176.00
2018-07-19T06:51:06.139Z,3172.00
2018-07-19T06:52:06.141Z,3164.00
2018-07-19T06:53:06.139Z,3152.00
2018-07-19T06:54:06.143Z,3144.00
2018-07-19T06:55:06.148Z,3136.00
2018-07-19T06:56:06.146Z,3124.00
2018-07-19T06:57:06.146Z,3116.00
2018-07-19T06:58:06.151Z,3108.00
2018-07-19T06:59:06.149Z,3100.00
2018-07-19T07:00:06.149Z,3096.00
2018-07-19T07:01:06.152Z,3084.00
2018-07-19T07:02:06.157Z,3076.00
2018-07-19T07:03:06.160Z,3072.00
2018-07-19T07:04:06.158Z,3056.00
2018-07-19T07:05:06.160Z,3052.00
2018-07-19T07:06:06.165Z,3048.00
2018-07-19T07:07:06.159Z,3040.00
2018-07-19T07:08:06.179Z,3032.00
2018-07-19T07:09:06.163Z,3024.00
2018-07-19T07:10:06.163Z,3020.00
2018-07-19T07:11:06.164Z,3020.00
2018-07-19T07:12:06.172Z,3012.00
2018-07-19T07:13:06.167Z,3008.00
2018-07-19T07:14:06.170Z,3004.00
2018-07-19T07:15:06.225Z,3000.00
2018-07-19T07:16:06.178Z,2992.00
2018-07-19T07:17:06.179Z,2988.00
2018-07-19T07:18:06.177Z,2980.00
2018-07-19T07:19:06.179Z,2972.00
2018-07-19T07:20:06.187Z,2964.00
2018-07-19T07:21:06.230Z,2956.00
2018-07-19T07:22:06.187Z,2956.00
2018-07-19T07:23:06.185Z,2944.00
2018-07-19T07:24:06.186Z,2936.00
2018-07-19T07:25:06.189Z,2936.00
2018-07-19T07:26:06.198Z,2928.00
2018-07-19T07:27:06.190Z,2924.00
2018-07-19T07:28:06.194Z,2920.00
2018-07-19T07:29:06.195Z,2916.00
2018-07-19T07:30:06.197Z,2912.00
2018-07-19T07:31:06.203Z,2908.00
2018-07-19T07:32:06.201Z,2904.00
2018-07-19T07:33:06.202Z,2900.00
2018-07-19T07:34:06.243Z,2892.00
2018-07-19T07:35:06.206Z,2888.00
2018-07-19T07:36:06.209Z,2880.00
2018-07-19T07:37:06.210Z,2872.00
2018-07-19T07:38:06.212Z,2864.00
2018-07-19T07:39:06.214Z,2860.00
2018-07-19T07:40:06.220Z,2848.00
2018-07-19T07:41:06.219Z,2840.00
2018-07-19T07:42:06.227Z,2836.00
2018-07-19T07:43:06.225Z,2828.00
2018-07-19T07:44:06.295Z,2820.00
2018-07-19T07:45:06.229Z,2816.00
2018-07-19T07:46:06.234Z,2808.00
2018-07-19T07:47:06.230Z,2804.00
2018-07-19T07:48:06.232Z,2800.00
2018-07-19T07:49:06.238Z,2796.00
2018-07-19T07:50:06.237Z,2792.00
2018-07-19T07:51:06.237Z,2788.00
2018-07-19T07:52:06.240Z,2784.00
2018-07-19T07:53:06.243Z,2784.00
2018-07-19T07:54:06.275Z,2776.00
2018-07-19T07:55:06.250Z,2772.00
2018-07-19T07:56:06.251Z,2764.00
2018-07-19T07:57:06.249Z,2760.00
2018-07-19T07:58:06.254Z,2760.00
2018-07-19T07:59:06.254Z,2752.00
2018-07-19T08:00:06.255Z,2752.00
2018-07-19T08:01:06.261Z,2748.00
2018-07-19T08:02:06.261Z,2744.00
2018-07-19T08:03:06.261Z,2744.00
2018-07-19T08:04:06.268Z,2740.00
2018-07-19T08:05:06.267Z,2736.00
2018-07-19T08:06:06.273Z,2736.00
2018-07-19T08:07:06.268Z,2728.00
2018-07-19T08:08:06.275Z,2720.00
2018-07-19T08:09:06.274Z,2716.00
2018-07-19T08:10:06.281Z,2712.00
2018-07-19T08:11:06.280Z,2716.00
2018-07-19T08:12:06.281Z,2716.00
2018-07-19T08:13:06.282Z,2716.00
2018-07-19T08:14:06.283Z,2716.00
2018-07-19T08:15:06.287Z,2712.00
2018-07-19T08:16:06.290Z,2708.00
2018-07-19T08:17:06.290Z,2704.00
2018-07-19T08:18:06.295Z,2708.00
2018-07-19T08:19:06.297Z,2700.00
2018-07-19T08:20:06.297Z,2696.00
2018-07-19T08:21:06.305Z,2696.00
2018-07-19T08:22:06.304Z,2692.00
2018-07-19T08:23:06.310Z,2696.00
2018-07-19T08:24:06.309Z,2692.00
2018-07-19T08:25:06.310Z,2684.00
2018-07-19T08:26:06.318Z,2684.00
2018-07-19T08:27:06.321Z,2680.00
2018-07-19T08:28:06.325Z,2680.00
2018-07-19T08:29:06.363Z,2676.00
2018-07-19T08:30:06.323Z,2672.00
2018-07-19T08:31:06.325Z,2668.00
2018-07-19T08:32:06.329Z,2672.00
2018-07-19T08:33:06.333Z,2672.00
2018-07-19T08:34:06.341Z,2672.00
2018-07-19T08:35:06.337Z,2668.00
2018-07-19T08:36:06.381Z,2668.00
2018-07-19T08:37:06.347Z,2664.00
2018-07-19T08:38:06.345Z,2664.00
2018-07-19T08:39:06.353Z,2660.00
2018-07-19T08:40:06.351Z,2652.00
2018-07-19T08:41:06.352Z,2648.00
2018-07-19T08:42:06.363Z,2644.00
2018-07-19T08:43:06.360Z,2636.00
2018-07-19T08:44:06.363Z,2632.00
2018-07-19T08:45:06.368Z,2632.00
2018-07-19T08:46:06.368Z,2636.00
2018-07-19T08:47:06.375Z,2636.00
2018-07-19T08:48:06.374Z,2632.00
2018-07-19T08:49:06.380Z,2624.00
2018-07-19T08:50:06.378Z,2624.00
2018-07-19T08:51:06.386Z,2616.00
2018-07-19T08:52:06.383Z,2616.00
2018-07-19T08:53:06.386Z,2612.00
2018-07-19T08:54:06.388Z,2608.00
2018-07-19T08:55:06.393Z,2608.00
2018-07-19T08:56:06.402Z,2608.00
2018-07-19T08:57:06.396Z,2600.00
2018-07-19T08:58:06.400Z,2596.00
2018-07-19T08:59:06.408Z,2596.00
2018-07-19T09:00:06.412Z,2592.00
2018-07-19T09:01:06.410Z,2584.00
2018-07-19T09:02:06.412Z,2580.00
2018-07-19T09:03:06.424Z,2572.00
2018-07-19T09:04:06.416Z,2568.00
2018-07-19T09:05:06.424Z,2564.00
2018-07-19T09:06:06.435Z,2560.00
2018-07-19T09:07:06.431Z,2560.00
2018-07-19T09:08:06.428Z,2560.00
2018-07-19T09:09:06.433Z,2552.00
2018-07-19T09:10:06.438Z,2552.00
2018-07-19T09:11:06.439Z,2540.00
2018-07-19T09:12:06.443Z,2536.00
2018-07-19T09:13:06.441Z,2536.00
2018-07-19T09:14:06.521Z,2532.00
2018-07-19T09:15:06.455Z,2536.00
2018-07-19T09:16:06.458Z,2536.00
2018-07-19T09:17:06.455Z,2532.00
2018-07-19T09:18:06.461Z,2532.00
2018-07-19T09:19:06.463Z,2524.00
2018-07-19T09:20:06.465Z,2512.00
2018-07-19T09:21:06.467Z,2508.00
2018-07-19T09:22:06.475Z,2508.00
2018-07-19T09:23:06.472Z,2504.00
2018-07-19T09:24:06.474Z,2500.00
2018-07-19T09:25:06.486Z,2500.00
2018-07-19T09:26:06.480Z,2500.00
2018-07-19T09:27:06.485Z,2500.00
2018-07-19T09:28:06.487Z,2492.00
2018-07-19T09:29:06.492Z,2488.00
2018-07-19T09:30:06.498Z,2480.00
2018-07-19T09:31:06.495Z,2480.00
2018-07-19T09:32:06.500Z,2476.00
2018-07-19T09:33:06.508Z,2472.00
2018-07-19T09:34:06.507Z,2476.00
2018-07-19T09:35:06.510Z,2468.00
2018-07-19T09:36:06.514Z,2464.00
2018-07-19T09:37:06.514Z,2460.00
2018-07-19T09:38:06.519Z,2456.00
2018-07-19T09:39:06.522Z,2448.00
2018-07-19T09:40:06.523Z,2444.00
2018-07-19T09:41:06.531Z,2440.00
2018-07-19T09:42:06.530Z,2436.00
2018-07-19T09:43:06.533Z,2432.00
2018-07-19T09:44:06.536Z,2432.00
2018-07-19T09:45:06.545Z,2436.00
2018-07-19T09:46:06.594Z,2432.00
2018-07-19T09:47:06.544Z,2424.00
2018-07-19T09:48:06.595Z,2424.00
2018-07-19T09:49:06.552Z,2424.00
2018-07-19T09:50:06.630Z,2420.00
2018-07-19T09:51:06.559Z,2420.00
2018-07-19T09:52:06.562Z,2428.00
2018-07-19T09:53:06.566Z,2420.00
2018-07-19T09:54:06.571Z,2420.00
2018-07-19T09:55:06.570Z,2424.00
2018-07-19T09:56:06.574Z,2420.00
2018-07-19T09:57:06.577Z,2416.00
2018-07-19T09:58:06.582Z,2420.00
2018-07-19T09:59:06.581Z,2416.00
2018-07-19T10:00:06.585Z,2412.00
2018-07-19T10:01:06.594Z,2412.00
2018-07-19T10:02:06.593Z,2408.00
2018-07-19T10:03:06.595Z,2416.00
2018-07-19T10:04:06.598Z,2416.00
2018-07-19T10:05:06.607Z,2416.00
2018-07-19T10:06:06.609Z,2412.00
2018-07-19T10:07:06.615Z,2416.00
2018-07-19T10:08:06.611Z,2412.00
2018-07-19T10:09:06.615Z,2412.00
2018-07-19T10:10:06.707Z,2408.00
2018-07-19T10:11:06.627Z,2404.00
2018-07-19T10:12:06.680Z,2400.00
2018-07-19T10:13:06.631Z,2400.00
2018-07-19T10:14:06.630Z,2392.00
2018-07-19T10:15:06.639Z,2396.00
2018-07-19T10:16:06.638Z,2392.00
2018-07-19T10:17:06.642Z,2392.00
2018-07-19T10:18:06.649Z,2392.00
2018-07-19T10:19:06.655Z,2388.00
2018-07-19T10:20:06.648Z,2392.00
2018-07-19T10:21:06.654Z,2388.00
2018-07-19T10:22:06.661Z,2388.00
2018-07-19T10:23:06.658Z,2384.00
2018-07-19T10:24:06.661Z,2380.00
2018-07-19T10:25:06.665Z,2380.00
2018-07-19T10:26:06.672Z,2380.00
2018-07-19T10:27:06.672Z,2384.00
2018-07-19T10:28:06.677Z,2388.00
2018-07-19T10:29:06.679Z,2384.00
2018-07-19T10:30:06.683Z,2380.00
2018-07-19T10:31:06.691Z,2384.00
2018-07-19T10:32:06.795Z,2380.00
2018-07-19T10:33:06.694Z,2384.00
2018-07-19T10:34:06.715Z,2384.00
2018-07-19T10:35:06.701Z,2380.00
2018-07-19T10:36:06.709Z,2384.00
2018-07-19T10:37:06.709Z,2384.00
2018-07-19T10:38:06.711Z,2384.00
2018-07-19T10:39:06.719Z,2392.00
2018-07-19T10:40:06.718Z,2388.00
2018-07-19T10:41:06.721Z,2388.00
2018-07-19T10:42:06.732Z,2384.00
2018-07-19T10:43:06.748Z,2384.00
2018-07-19T10:44:06.732Z,2384.00
2018-07-19T10:45:06.735Z,2384.00
2018-07-19T10:46:06.830Z,2388.00
2018-07-19T10:47:06.743Z,2384.00
2018-07-19T10:48:06.746Z,2388.00
2018-07-19T10:49:06.750Z,2388.00
2018-07-19T10:50:06.756Z,2388.00
2018-07-19T10:51:06.761Z,2388.00
2018-07-19T10:52:06.762Z,2388.00
2018-07-19T10:53:06.765Z,2384.00
2018-07-19T10:54:06.769Z,2388.00
2018-07-19T10:55:06.774Z,2380.00
2018-07-19T10:56:06.776Z,2388.00
2018-07-19T10:57:06.781Z,2384.00
2018-07-19T10:58:06.786Z,2380.00
2018-07-19T10:59:06.788Z,2384.00
2018-07-19T11:00:06.792Z,2388.00
2018-07-19T11:01:06.797Z,2392.00
2018-07-19T11:02:06.801Z,2408.00
2018-07-19T11:03:06.804Z,2408.00
2018-07-19T11:04:06.815Z,2388.00
2018-07-19T11:05:06.817Z,2400.00
2018-07-19T11:06:06.817Z,2388.00
2018-07-19T11:07:06.818Z,2388.00
2018-07-19T11:08:06.825Z,2392.00
2018-07-19T11:09:06.836Z,2388.00
2018-07-19T11:10:06.882Z,2388.00
2018-07-19T11:11:06.840Z,2388.00
2018-07-19T11:12:06.839Z,2388.00
2018-07-19T11:13:06.844Z,2392.00
2018-07-19T11:14:06.847Z,2400.00
2018-07-19T11:15:06.856Z,2404.00
2018-07-19T11:16:06.857Z,2404.00
2018-07-19T11:17:06.871Z,2408.00
2018-07-19T11:18:06.865Z,2416.00
2018-07-19T11:19:06.873Z,2428.00
2018-07-19T11:20:06.876Z,2436.00
2018-07-19T11:21:06.878Z,2436.00
2018-07-19T11:22:06.879Z,2436.00
2018-07-19T11:23:06.883Z,2432.00
2018-07-19T11:24:06.887Z,2432.00
2018-07-19T11:25:06.891Z,2428.00
2018-07-19T11:26:06.895Z,2424.00
2018-07-19T11:27:06.909Z,2416.00
2018-07-19T11:28:06.910Z,2436.00
2018-07-19T11:29:06.906Z,2436.00
2018-07-19T11:30:06.910Z,2436.00
2018-07-19T11:31:06.914Z,2440.00
2018-07-19T11:32:06.920Z,2436.00
2018-07-19T11:33:06.929Z,2436.00
2018-07-19T11:34:06.934Z,2436.00
2018-07-19T11:35:06.940Z,2432.00
2018-07-19T11:36:06.935Z,2432.00
2018-07-19T11:37:06.938Z,2436.00
2018-07-19T11:38:06.941Z,2444.00
2018-07-19T11:39:06.945Z,2460.00
2018-07-19T11:40:06.949Z,2472.00
2018-07-19T11:41:06.958Z,2484.00
2018-07-19T11:42:06.961Z,2484.00
2018-07-19T11:43:06.969Z,2500.00
2018-07-19T11:44:06.971Z,2508.00
2018-07-19T11:45:06.973Z,2508.00
2018-07-19T11:46:06.978Z,2508.00
2018-07-19T11:47:06.982Z,2500.00
2018-07-19T11:48:06.984Z,2480.00
2018-07-19T11:49:06.999Z,2460.00
2018-07-19T11:50:06.999Z,2436.00
2018-07-19T11:51:07.000Z,2384.00
2018-07-19T11:52:07.005Z,1808.00
2018-07-19T11:53:07.039Z,1896.00
2018-07-19T11:54:07.011Z,2272.00
2018-07-19T11:55:07.015Z,2400.00
2018-07-19T11:56:07.025Z,2468.00
2018-07-19T11:57:07.025Z,2452.00
2018-07-19T11:58:07.030Z,2436.00
2018-07-19T11:59:07.036Z,2432.00
2018-07-19T12:00:07.046Z,2448.00
2018-07-19T12:01:07.045Z,2460.00
2018-07-19T12:02:07.054Z,2480.00
2018-07-19T12:03:07.056Z,2504.00
2018-07-19T12:04:07.060Z,2512.00
2018-07-19T12:05:07.062Z,2512.00
2018-07-19T12:06:07.070Z,2508.00
2018-07-19T12:07:07.081Z,2508.00
2018-07-19T12:08:07.081Z,2500.00
2018-07-19T12:09:07.082Z,2500.00
2018-07-19T12:10:07.096Z,2500.00
2018-07-19T12:11:07.094Z,2504.00
2018-07-19T12:12:07.104Z,2504.00
2018-07-19T12:13:07.104Z,2516.00
2018-07-19T12:14:07.111Z,2524.00
2018-07-19T12:15:07.117Z,2532.00
2018-07-19T12:16:07.122Z,2536.00
2018-07-19T12:17:07.121Z,2548.00
2018-07-19T12:18:07.188Z,2556.00
2018-07-19T12:19:07.138Z,2556.00
2018-07-19T12:20:07.136Z,2556.00
2018-07-19T12:21:07.146Z,2560.00
2018-07-19T12:22:07.160Z,2564.00
2018-07-19T12:23:07.151Z,2564.00
2018-07-19T12:24:07.164Z,2560.00
2018-07-19T12:25:07.162Z,2556.00
2018-07-19T12:26:07.169Z,2560.00
2018-07-19T12:27:07.174Z,2556.00
2018-07-19T12:28:07.178Z,2544.00
2018-07-19T12:29:07.183Z,2540.00
2018-07-19T12:30:07.190Z,2544.00
2018-07-19T12:31:07.195Z,2552.00
2018-07-19T12:32:07.200Z,2552.00
2018-07-19T12:33:07.212Z,2560.00
2018-07-19T12:34:07.211Z,2560.00
2018-07-19T12:35:07.222Z,2544.00
2018-07-19T12:36:07.220Z,2520.00